sensor_id;sensor_type;location;lat;lon;timestamp;temperature;humidity
15359;DHT22;7779;49.596;11.070;2022-10-26T00:00:39;10.80;75.30
15359;DHT22;7779;49.596;11.070;2022-10-26T00:03:04;10.70;75.10
15359;DHT22;7779;49.596;11.070;2022-10-26T00:05:32;10.70;75.20
15359;DHT22;7779;49.596;11.070;2022-10-26T00:07:59;10.70;75.20
15359;DHT22;7779;49.596;11.070;2022-10-26T00:10:26;10.60;75.10
15359;DHT22;7779;49.596;11.070;2022-10-26T00:12:52;10.50;75.00
15359;DHT22;7779;49.596;11.070;2022-10-26T00:15:18;10.50;75.00
15359;DHT22;7779;49.596;11.070;2022-10-26T00:17:46;10.40;75.00
15359;DHT22;7779;49.596;11.070;2022-10-26T00:20:12;10.40;75.00
15359;DHT22;7779;49.596;11.070;2022-10-26T00:22:38;10.30;74.90
15359;DHT22;7779;49.596;11.070;2022-10-26T00:25:04;10.30;75.00
15359;DHT22;7779;49.596;11.070;2022-10-26T00:27:31;10.20;74.90
15359;DHT22;7779;49.596;11.070;2022-10-26T00:30:00;10.20;75.10
15359;DHT22;7779;49.596;11.070;2022-10-26T00:32:26;10.10;75.10
15359;DHT22;7779;49.596;11.070;2022-10-26T00:34:52;10.10;75.30
15359;DHT22;7779;49.596;11.070;2022-10-26T00:37:18;10.10;75.40
15359;DHT22;7779;49.596;11.070;2022-10-26T00:39:44;10.00;75.40
15359;DHT22;7779;49.596;11.070;2022-10-26T00:42:19;10.00;75.60
15359;DHT22;7779;49.596;11.070;2022-10-26T00:47:17;9.90;76.80
15359;DHT22;7779;49.596;11.070;2022-10-26T00:49:48;9.90;77.10
15359;DHT22;7779;49.596;11.070;2022-10-26T00:52:18;9.90;77.20
15359;DHT22;7779;49.596;11.070;2022-10-26T00:54:45;9.90;77.20
15359;DHT22;7779;49.596;11.070;2022-10-26T00:57:14;9.90;77.30
15359;DHT22;7779;49.596;11.070;2022-10-26T00:59:42;9.90;77.60
15359;DHT22;7779;49.596;11.070;2022-10-26T01:02:10;9.90;77.50
15359;DHT22;7779;49.596;11.070;2022-10-26T01:04:37;9.90;77.60
15359;DHT22;7779;49.596;11.070;2022-10-26T01:07:04;9.90;77.70
15359;DHT22;7779;49.596;11.070;2022-10-26T01:09:31;9.90;77.80
15359;DHT22;7779;49.596;11.070;2022-10-26T01:11:58;9.90;77.90
15359;DHT22;7779;49.596;11.070;2022-10-26T01:14:26;9.90;78.00
15359;DHT22;7779;49.596;11.070;2022-10-26T01:22:28;9.90;79.00
15359;DHT22;7779;49.596;11.070;2022-10-26T01:28:12;10.00;78.00
15359;DHT22;7779;49.596;11.070;2022-10-26T01:31:00;10.10;78.00
15359;DHT22;7779;49.596;11.070;2022-10-26T01:33:44;10.10;78.00
15359;DHT22;7779;49.596;11.070;2022-10-26T01:36:41;10.10;79.00
15359;DHT22;7779;49.596;11.070;2022-10-26T01:39:18;10.20;79.60
15359;DHT22;7779;49.596;11.070;2022-10-26T01:41:51;10.30;78.90
15359;DHT22;7779;49.596;11.070;2022-10-26T01:44:37;10.30;78.70
15359;DHT22;7779;49.596;11.070;2022-10-26T01:47:09;10.40;79.60
15359;DHT22;7779;49.596;11.070;2022-10-26T01:49:41;10.40;78.90
15359;DHT22;7779;49.596;11.070;2022-10-26T01:52:11;10.50;79.00
15359;DHT22;7779;49.596;11.070;2022-10-26T01:54:37;10.60;79.10
15359;DHT22;7779;49.596;11.070;2022-10-26T01:57:08;10.60;79.20
15359;DHT22;7779;49.596;11.070;2022-10-26T02:09:06;10.80;80.10
15359;DHT22;7779;49.596;11.070;2022-10-26T02:11:47;10.90;80.40
15359;DHT22;7779;49.596;11.070;2022-10-26T02:14:35;11.00;79.20
15359;DHT22;7779;49.596;11.070;2022-10-26T02:20:07;11.10;79.70
15359;DHT22;7779;49.596;11.070;2022-10-26T02:22:44;11.10;79.40
15359;DHT22;7779;49.596;11.070;2022-10-26T02:25:17;11.20;79.30
15359;DHT22;7779;49.596;11.070;2022-10-26T02:27:51;11.20;79.30
15359;DHT22;7779;49.596;11.070;2022-10-26T02:30:20;11.30;79.10
15359;DHT22;7779;49.596;11.070;2022-10-26T02:32:50;11.30;78.90
15359;DHT22;7779;49.596;11.070;2022-10-26T02:35:22;11.30;78.90
15359;DHT22;7779;49.596;11.070;2022-10-26T02:37:55;11.30;78.60
15359;DHT22;7779;49.596;11.070;2022-10-26T02:40:26;11.40;78.60
15359;DHT22;7779;49.596;11.070;2022-10-26T02:42:56;11.40;78.50
15359;DHT22;7779;49.596;11.070;2022-10-26T02:45:30;11.40;78.40
15359;DHT22;7779;49.596;11.070;2022-10-26T02:47:59;11.40;78.40
15359;DHT22;7779;49.596;11.070;2022-10-26T02:50:51;11.40;78.30
15359;DHT22;7779;49.596;11.070;2022-10-26T02:53:31;11.40;79.00
15359;DHT22;7779;49.596;11.070;2022-10-26T02:56:10;11.40;78.50
15359;DHT22;7779;49.596;11.070;2022-10-26T02:58:46;11.40;78.50
15359;DHT22;7779;49.596;11.070;2022-10-26T03:01:16;11.40;78.40
15359;DHT22;7779;49.596;11.070;2022-10-26T03:03:42;11.40;78.30
15359;DHT22;7779;49.596;11.070;2022-10-26T03:06:07;11.50;78.40
15359;DHT22;7779;49.596;11.070;2022-10-26T03:08:33;11.50;78.30
15359;DHT22;7779;49.596;11.070;2022-10-26T03:10:59;11.50;78.20
15359;DHT22;7779;49.596;11.070;2022-10-26T03:13:24;11.50;78.20
15359;DHT22;7779;49.596;11.070;2022-10-26T03:15:54;11.50;78.30
15359;DHT22;7779;49.596;11.070;2022-10-26T03:18:21;11.40;78.70
15359;DHT22;7779;49.596;11.070;2022-10-26T03:20:48;11.50;78.30
15359;DHT22;7779;49.596;11.070;2022-10-26T03:23:13;11.50;78.30
15359;DHT22;7779;49.596;11.070;2022-10-26T03:25:39;11.50;78.30
15359;DHT22;7779;49.596;11.070;2022-10-26T03:28:05;11.50;78.30
15359;DHT22;7779;49.596;11.070;2022-10-26T03:30:32;11.50;78.40
15359;DHT22;7779;49.596;11.070;2022-10-26T03:32:58;11.50;78.50
15359;DHT22;7779;49.596;11.070;2022-10-26T03:35:23;11.50;78.50
15359;DHT22;7779;49.596;11.070;2022-10-26T03:37:49;11.50;78.50
15359;DHT22;7779;49.596;11.070;2022-10-26T03:40:15;11.50;78.50
15359;DHT22;7779;49.596;11.070;2022-10-26T03:42:41;11.50;78.50
15359;DHT22;7779;49.596;11.070;2022-10-26T03:45:07;11.50;78.50
15359;DHT22;7779;49.596;11.070;2022-10-26T03:47:39;11.50;78.50
15359;DHT22;7779;49.596;11.070;2022-10-26T03:50:07;11.50;78.50
15359;DHT22;7779;49.596;11.070;2022-10-26T03:52:33;11.60;78.60
15359;DHT22;7779;49.596;11.070;2022-10-26T03:54:59;11.60;78.60
15359;DHT22;7779;49.596;11.070;2022-10-26T03:57:24;11.60;78.70
15359;DHT22;7779;49.596;11.070;2022-10-26T03:59:50;11.60;78.70
15359;DHT22;7779;49.596;11.070;2022-10-26T04:02:16;11.60;78.70
15359;DHT22;7779;49.596;11.070;2022-10-26T04:04:42;11.60;78.90
15359;DHT22;7779;49.596;11.070;2022-10-26T04:07:07;11.60;78.90
15359;DHT22;7779;49.596;11.070;2022-10-26T04:09:33;11.60;79.10
15359;DHT22;7779;49.596;11.070;2022-10-26T04:11:59;11.70;79.20
15359;DHT22;7779;49.596;11.070;2022-10-26T04:14:25;11.70;79.40
15359;DHT22;7779;49.596;11.070;2022-10-26T04:16:50;11.70;79.40
15359;DHT22;7779;49.596;11.070;2022-10-26T04:19:16;11.80;79.60
15359;DHT22;7779;49.596;11.070;2022-10-26T04:21:42;11.80;79.70
15359;DHT22;7779;49.596;11.070;2022-10-26T04:24:09;11.80;79.70
15359;DHT22;7779;49.596;11.070;2022-10-26T04:26:35;11.90;79.90
15359;DHT22;7779;49.596;11.070;2022-10-26T04:29:01;11.90;79.90
15359;DHT22;7779;49.596;11.070;2022-10-26T04:31:31;12.00;80.10
15359;DHT22;7779;49.596;11.070;2022-10-26T04:33:57;12.00;80.20
15359;DHT22;7779;49.596;11.070;2022-10-26T04:36:23;12.00;80.30
15359;DHT22;7779;49.596;11.070;2022-10-26T04:38:49;12.10;80.40
15359;DHT22;7779;49.596;11.070;2022-10-26T04:41:14;12.10;80.40
15359;DHT22;7779;49.596;11.070;2022-10-26T04:43:40;12.20;80.40
15359;DHT22;7779;49.596;11.070;2022-10-26T04:46:06;12.20;80.50
15359;DHT22;7779;49.596;11.070;2022-10-26T04:48:31;12.30;80.60
15359;DHT22;7779;49.596;11.070;2022-10-26T04:50:58;12.30;80.60
15359;DHT22;7779;49.596;11.070;2022-10-26T04:53:25;12.30;80.50
15359;DHT22;7779;49.596;11.070;2022-10-26T04:55:59;12.40;80.40
15359;DHT22;7779;49.596;11.070;2022-10-26T04:58:27;12.50;80.90
15359;DHT22;7779;49.596;11.070;2022-10-26T05:00:53;12.50;80.30
15359;DHT22;7779;49.596;11.070;2022-10-26T05:03:19;12.50;80.20
15359;DHT22;7779;49.596;11.070;2022-10-26T05:05:45;12.50;80.20
15359;DHT22;7779;49.596;11.070;2022-10-26T05:08:14;12.50;80.90
15359;DHT22;7779;49.596;11.070;2022-10-26T05:10:41;12.60;80.30
15359;DHT22;7779;49.596;11.070;2022-10-26T05:13:08;12.60;80.30
15359;DHT22;7779;49.596;11.070;2022-10-26T05:15:35;12.60;80.30
15359;DHT22;7779;49.596;11.070;2022-10-26T05:18:02;12.60;81.00
15359;DHT22;7779;49.596;11.070;2022-10-26T05:20:31;12.70;80.50
15359;DHT22;7779;49.596;11.070;2022-10-26T05:23:01;12.70;80.50
15359;DHT22;7779;49.596;11.070;2022-10-26T05:25:36;12.70;80.40
15359;DHT22;7779;49.596;11.070;2022-10-26T05:28:05;12.80;80.40
15359;DHT22;7779;49.596;11.070;2022-10-26T05:30:34;12.80;80.40
15359;DHT22;7779;49.596;11.070;2022-10-26T05:33:00;12.80;80.40
15359;DHT22;7779;49.596;11.070;2022-10-26T05:35:27;12.80;80.50
15359;DHT22;7779;49.596;11.070;2022-10-26T05:37:54;12.90;80.60
15359;DHT22;7779;49.596;11.070;2022-10-26T05:40:19;12.90;80.80
15359;DHT22;7779;49.596;11.070;2022-10-26T05:42:46;12.90;80.80
15359;DHT22;7779;49.596;11.070;2022-10-26T05:45:12;13.00;80.90
15359;DHT22;7779;49.596;11.070;2022-10-26T05:47:38;13.00;80.80
15359;DHT22;7779;49.596;11.070;2022-10-26T05:50:06;13.10;80.90
15359;DHT22;7779;49.596;11.070;2022-10-26T05:52:44;13.10;80.80
15359;DHT22;7779;49.596;11.070;2022-10-26T05:55:15;13.20;81.40
15359;DHT22;7779;49.596;11.070;2022-10-26T05:57:42;13.20;81.00
15359;DHT22;7779;49.596;11.070;2022-10-26T06:00:19;13.20;80.70
15359;DHT22;7779;49.596;11.070;2022-10-26T06:05:57;13.30;81.10
15359;DHT22;7779;49.596;11.070;2022-10-26T06:08:26;13.30;81.40
15359;DHT22;7779;49.596;11.070;2022-10-26T06:10:56;13.40;80.70
15359;DHT22;7779;49.596;11.070;2022-10-26T06:13:27;13.30;80.50
15359;DHT22;7779;49.596;11.070;2022-10-26T06:16:08;13.40;80.60
15359;DHT22;7779;49.596;11.070;2022-10-26T06:30:30;13.50;80.50
15359;DHT22;7779;49.596;11.070;2022-10-26T06:32:56;13.50;80.50
15359;DHT22;7779;49.596;11.070;2022-10-26T06:38:10;13.60;80.60
15359;DHT22;7779;49.596;11.070;2022-10-26T06:40:41;13.60;80.80
15359;DHT22;7779;49.596;11.070;2022-10-26T06:43:30;13.60;80.70
15359;DHT22;7779;49.596;11.070;2022-10-26T06:46:23;13.60;81.00
15359;DHT22;7779;49.596;11.070;2022-10-26T06:54:50;13.70;80.90
15359;DHT22;7779;49.596;11.070;2022-10-26T06:57:23;13.80;80.90
15359;DHT22;7779;49.596;11.070;2022-10-26T06:59:55;13.80;80.90
15359;DHT22;7779;49.596;11.070;2022-10-26T07:02:25;13.90;81.10
15359;DHT22;7779;49.596;11.070;2022-10-26T07:04:51;13.80;80.90
15359;DHT22;7779;49.596;11.070;2022-10-26T07:07:24;13.90;80.90
15359;DHT22;7779;49.596;11.070;2022-10-26T07:09:51;14.00;81.00
15359;DHT22;7779;49.596;11.070;2022-10-26T07:12:17;14.00;80.70
15359;DHT22;7779;49.596;11.070;2022-10-26T07:14:43;14.00;80.70
15359;DHT22;7779;49.596;11.070;2022-10-26T07:17:10;14.00;80.70
15359;DHT22;7779;49.596;11.070;2022-10-26T07:19:36;14.00;80.70
15359;DHT22;7779;49.596;11.070;2022-10-26T07:22:02;14.10;81.00
15359;DHT22;7779;49.596;11.070;2022-10-26T07:24:28;14.20;81.20
15359;DHT22;7779;49.596;11.070;2022-10-26T07:26:56;14.20;81.30
15359;DHT22;7779;49.596;11.070;2022-10-26T07:29:24;14.20;81.40
15359;DHT22;7779;49.596;11.070;2022-10-26T07:31:51;14.30;81.70
15359;DHT22;7779;49.596;11.070;2022-10-26T07:34:18;14.30;81.90
15359;DHT22;7779;49.596;11.070;2022-10-26T07:36:44;14.50;82.10
15359;DHT22;7779;49.596;11.070;2022-10-26T07:39:09;14.60;82.30
15359;DHT22;7779;49.596;11.070;2022-10-26T07:41:35;14.60;82.20
15359;DHT22;7779;49.596;11.070;2022-10-26T07:44:01;14.70;82.30
15359;DHT22;7779;49.596;11.070;2022-10-26T07:46:27;14.80;82.40
15359;DHT22;7779;49.596;11.070;2022-10-26T07:48:53;14.90;82.30
15359;DHT22;7779;49.596;11.070;2022-10-26T07:51:19;15.00;82.30
15359;DHT22;7779;49.596;11.070;2022-10-26T07:53:45;15.10;82.30
15359;DHT22;7779;49.596;11.070;2022-10-26T07:56:11;15.20;82.30
15359;DHT22;7779;49.596;11.070;2022-10-26T07:58:38;15.30;82.20
15359;DHT22;7779;49.596;11.070;2022-10-26T08:01:05;15.40;81.50
15359;DHT22;7779;49.596;11.070;2022-10-26T08:03:36;15.50;82.10
15359;DHT22;7779;49.596;11.070;2022-10-26T08:06:02;15.60;81.90
15359;DHT22;7779;49.596;11.070;2022-10-26T08:08:30;15.60;81.50
15359;DHT22;7779;49.596;11.070;2022-10-26T08:10:57;15.70;81.40
15359;DHT22;7779;49.596;11.070;2022-10-26T08:13:23;15.80;81.20
15359;DHT22;7779;49.596;11.070;2022-10-26T08:15:49;15.80;80.90
15359;DHT22;7779;49.596;11.070;2022-10-26T08:18:15;16.00;80.90
15359;DHT22;7779;49.596;11.070;2022-10-26T08:20:40;15.90;80.60
15359;DHT22;7779;49.596;11.070;2022-10-26T08:23:06;16.00;80.50
15359;DHT22;7779;49.596;11.070;2022-10-26T08:25:33;16.10;80.30
15359;DHT22;7779;49.596;11.070;2022-10-26T08:28:02;16.10;80.10
15359;DHT22;7779;49.596;11.070;2022-10-26T08:30:30;16.10;79.80
15359;DHT22;7779;49.596;11.070;2022-10-26T08:33:00;16.20;79.90
15359;DHT22;7779;49.596;11.070;2022-10-26T08:35:28;16.20;79.70
15359;DHT22;7779;49.596;11.070;2022-10-26T08:37:54;16.30;79.90
15359;DHT22;7779;49.596;11.070;2022-10-26T08:40:29;16.30;79.70
15359;DHT22;7779;49.596;11.070;2022-10-26T08:43:17;16.30;79.60
15359;DHT22;7779;49.596;11.070;2022-10-26T08:46:15;16.30;79.00
15359;DHT22;7779;49.596;11.070;2022-10-26T08:48:59;16.40;79.50
15359;DHT22;7779;49.596;11.070;2022-10-26T08:51:34;16.50;79.40
15359;DHT22;7779;49.596;11.070;2022-10-26T08:54:20;16.50;79.60
15359;DHT22;7779;49.596;11.070;2022-10-26T08:56:58;16.60;79.20
15359;DHT22;7779;49.596;11.070;2022-10-26T09:02:19;16.70;79.50
15359;DHT22;7779;49.596;11.070;2022-10-26T09:04:46;16.80;79.90
15359;DHT22;7779;49.596;11.070;2022-10-26T09:10:16;17.00;78.70
15359;DHT22;7779;49.596;11.070;2022-10-26T09:15:47;17.10;79.00
15359;DHT22;7779;49.596;11.070;2022-10-26T09:21:36;17.30;78.30
15359;DHT22;7779;49.596;11.070;2022-10-26T09:27:45;17.40;78.40
15359;DHT22;7779;49.596;11.070;2022-10-26T09:30:16;17.50;77.40
15359;DHT22;7779;49.596;11.070;2022-10-26T09:32:47;17.60;77.60
15359;DHT22;7779;49.596;11.070;2022-10-26T09:35:45;17.60;77.90
15359;DHT22;7779;49.596;11.070;2022-10-26T09:46:45;17.80;76.90
15359;DHT22;7779;49.596;11.070;2022-10-26T09:49:30;17.80;77.60
15359;DHT22;7779;49.596;11.070;2022-10-26T09:52:00;17.90;77.40
15359;DHT22;7779;49.596;11.070;2022-10-26T09:54:26;17.90;77.50
15359;DHT22;7779;49.596;11.070;2022-10-26T09:56:55;18.00;77.60
15359;DHT22;7779;49.596;11.070;2022-10-26T09:59:25;18.00;77.20
15359;DHT22;7779;49.596;11.070;2022-10-26T10:01:51;18.10;77.50
15359;DHT22;7779;49.596;11.070;2022-10-26T10:04:21;18.20;77.40
15359;DHT22;7779;49.596;11.070;2022-10-26T10:06:52;18.20;76.90
15359;DHT22;7779;49.596;11.070;2022-10-26T10:09:37;18.30;76.90
15359;DHT22;7779;49.596;11.070;2022-10-26T10:12:03;18.40;77.40
15359;DHT22;7779;49.596;11.070;2022-10-26T10:14:57;18.50;77.20
15359;DHT22;7779;49.596;11.070;2022-10-26T10:17:24;18.60;75.30
15359;DHT22;7779;49.596;11.070;2022-10-26T10:19:51;18.70;77.00
15359;DHT22;7779;49.596;11.070;2022-10-26T10:22:20;18.80;76.60
15359;DHT22;7779;49.596;11.070;2022-10-26T10:25:02;18.90;76.00
15359;DHT22;7779;49.596;11.070;2022-10-26T10:27:29;19.00;75.80
15359;DHT22;7779;49.596;11.070;2022-10-26T10:30:23;19.00;75.80
15359;DHT22;7779;49.596;11.070;2022-10-26T10:33:08;19.10;74.30
15359;DHT22;7779;49.596;11.070;2022-10-26T10:35:37;19.10;74.30
15359;DHT22;7779;49.596;11.070;2022-10-26T10:38:20;19.10;75.00
15359;DHT22;7779;49.596;11.070;2022-10-26T10:40:55;19.20;74.20
15359;DHT22;7779;49.596;11.070;2022-10-26T10:43:24;19.20;74.50
15359;DHT22;7779;49.596;11.070;2022-10-26T10:45:52;19.30;75.00
15359;DHT22;7779;49.596;11.070;2022-10-26T10:48:20;19.30;74.90
15359;DHT22;7779;49.596;11.070;2022-10-26T10:53:52;19.40;73.90
15359;DHT22;7779;49.596;11.070;2022-10-26T10:56:40;19.50;73.40
15359;DHT22;7779;49.596;11.070;2022-10-26T11:07:32;19.60;73.80
15359;DHT22;7779;49.596;11.070;2022-10-26T11:10:07;19.60;72.20
15359;DHT22;7779;49.596;11.070;2022-10-26T11:12:44;19.60;73.80
15359;DHT22;7779;49.596;11.070;2022-10-26T11:15:22;19.60;73.40
15359;DHT22;7779;49.596;11.070;2022-10-26T11:20:36;19.60;73.70
15359;DHT22;7779;49.596;11.070;2022-10-26T11:23:36;19.60;73.30
15359;DHT22;7779;49.596;11.070;2022-10-26T11:26:13;19.60;72.20
15359;DHT22;7779;49.596;11.070;2022-10-26T11:31:43;19.70;72.30
15359;DHT22;7779;49.596;11.070;2022-10-26T11:34:20;19.70;72.90
15359;DHT22;7779;49.596;11.070;2022-10-26T11:36:58;19.70;72.80
15359;DHT22;7779;49.596;11.070;2022-10-26T11:39:44;19.60;72.70
15359;DHT22;7779;49.596;11.070;2022-10-26T11:44:52;19.70;72.50
15359;DHT22;7779;49.596;11.070;2022-10-26T11:47:29;19.70;72.60
15359;DHT22;7779;49.596;11.070;2022-10-26T11:50:16;19.70;72.90
15359;DHT22;7779;49.596;11.070;2022-10-26T11:52:57;19.70;73.00
15359;DHT22;7779;49.596;11.070;2022-10-26T11:55:29;19.70;72.50
15359;DHT22;7779;49.596;11.070;2022-10-26T12:00:23;19.70;72.40
15359;DHT22;7779;49.596;11.070;2022-10-26T12:03:03;19.80;73.00
15359;DHT22;7779;49.596;11.070;2022-10-26T12:05:50;19.80;71.90
15359;DHT22;7779;49.596;11.070;2022-10-26T12:14:04;19.80;72.40
15359;DHT22;7779;49.596;11.070;2022-10-26T12:17:12;19.80;72.60
15359;DHT22;7779;49.596;11.070;2022-10-26T12:22:58;19.90;72.30
15359;DHT22;7779;49.596;11.070;2022-10-26T12:25:23;19.90;72.90
15359;DHT22;7779;49.596;11.070;2022-10-26T12:27:54;20.00;72.70
15359;DHT22;7779;49.596;11.070;2022-10-26T12:30:24;20.00;72.20
15359;DHT22;7779;49.596;11.070;2022-10-26T12:33:02;20.00;72.30
15359;DHT22;7779;49.596;11.070;2022-10-26T12:35:55;20.00;71.80
15359;DHT22;7779;49.596;11.070;2022-10-26T12:48:44;20.00;72.00
15359;DHT22;7779;49.596;11.070;2022-10-26T12:57:23;20.10;71.60
15359;DHT22;7779;49.596;11.070;2022-10-26T13:00:01;20.10;71.70
15359;DHT22;7779;49.596;11.070;2022-10-26T13:02:53;20.10;72.20
15359;DHT22;7779;49.596;11.070;2022-10-26T13:08:56;20.10;71.90
15359;DHT22;7779;49.596;11.070;2022-10-26T13:11:29;20.20;72.40
15359;DHT22;7779;49.596;11.070;2022-10-26T13:13:59;20.20;72.60
15359;DHT22;7779;49.596;11.070;2022-10-26T13:16:29;20.30;72.90
15359;DHT22;7779;49.596;11.070;2022-10-26T13:18:55;20.30;72.80
15359;DHT22;7779;49.596;11.070;2022-10-26T13:21:23;20.40;73.20
15359;DHT22;7779;49.596;11.070;2022-10-26T13:26:24;20.50;72.50
15359;DHT22;7779;49.596;11.070;2022-10-26T13:28:59;20.50;72.30
15359;DHT22;7779;49.596;11.070;2022-10-26T13:39:26;20.80;72.70
15359;DHT22;7779;49.596;11.070;2022-10-26T13:41:55;20.90;72.70
15359;DHT22;7779;49.596;11.070;2022-10-26T13:50:52;21.10;71.40
15359;DHT22;7779;49.596;11.070;2022-10-26T13:53:24;21.20;71.70
15359;DHT22;7779;49.596;11.070;2022-10-26T13:56:24;21.20;71.20
15359;DHT22;7779;49.596;11.070;2022-10-26T13:59:10;21.30;70.10
15359;DHT22;7779;49.596;11.070;2022-10-26T14:01:38;21.30;70.30
15359;DHT22;7779;49.596;11.070;2022-10-26T14:04:24;21.20;70.80
15359;DHT22;7779;49.596;11.070;2022-10-26T14:06:52;21.20;69.80
15359;DHT22;7779;49.596;11.070;2022-10-26T14:09:19;21.20;70.40
15359;DHT22;7779;49.596;11.070;2022-10-26T14:11:52;21.20;70.90
15359;DHT22;7779;49.596;11.070;2022-10-26T14:14:31;21.10;70.10
15359;DHT22;7779;49.596;11.070;2022-10-26T14:17:00;21.10;69.70
15359;DHT22;7779;49.596;11.070;2022-10-26T14:19:33;21.10;70.10
15359;DHT22;7779;49.596;11.070;2022-10-26T14:22:01;21.00;69.90
15359;DHT22;7779;49.596;11.070;2022-10-26T14:24:30;21.00;70.20
15359;DHT22;7779;49.596;11.070;2022-10-26T14:26:57;21.00;70.20
15359;DHT22;7779;49.596;11.070;2022-10-26T14:29:25;21.00;70.30
15359;DHT22;7779;49.596;11.070;2022-10-26T14:31:52;20.90;70.20
15359;DHT22;7779;49.596;11.070;2022-10-26T14:34:22;20.90;70.20
15359;DHT22;7779;49.596;11.070;2022-10-26T14:36:55;20.90;70.30
15359;DHT22;7779;49.596;11.070;2022-10-26T14:39:42;20.90;70.40
15359;DHT22;7779;49.596;11.070;2022-10-26T14:42:16;20.90;69.90
15359;DHT22;7779;49.596;11.070;2022-10-26T14:44:46;20.80;70.30
15359;DHT22;7779;49.596;11.070;2022-10-26T14:47:29;20.80;70.30
15359;DHT22;7779;49.596;11.070;2022-10-26T14:49:58;20.70;69.20
15359;DHT22;7779;49.596;11.070;2022-10-26T14:52:31;20.70;70.10
15359;DHT22;7779;49.596;11.070;2022-10-26T14:57:34;20.60;70.00
15359;DHT22;7779;49.596;11.070;2022-10-26T15:00:17;20.60;69.80
15359;DHT22;7779;49.596;11.070;2022-10-26T15:02:47;20.50;69.80
15359;DHT22;7779;49.596;11.070;2022-10-26T15:07:52;20.40;69.80
15359;DHT22;7779;49.596;11.070;2022-10-26T15:13:28;20.30;70.40
15359;DHT22;7779;49.596;11.070;2022-10-26T15:16:17;20.20;69.90
15359;DHT22;7779;49.596;11.070;2022-10-26T15:18:47;20.10;70.00
15359;DHT22;7779;49.596;11.070;2022-10-26T15:21:25;20.10;70.30
15359;DHT22;7779;49.596;11.070;2022-10-26T15:24:00;20.00;70.40
15359;DHT22;7779;49.596;11.070;2022-10-26T15:26:27;19.90;70.50
15359;DHT22;7779;49.596;11.070;2022-10-26T15:28:54;19.90;70.70
15359;DHT22;7779;49.596;11.070;2022-10-26T15:36:19;19.80;71.20
15359;DHT22;7779;49.596;11.070;2022-10-26T15:38:48;19.70;71.20
15359;DHT22;7779;49.596;11.070;2022-10-26T15:41:21;19.70;71.40
15359;DHT22;7779;49.596;11.070;2022-10-26T15:43:53;19.70;71.50
15359;DHT22;7779;49.596;11.070;2022-10-26T15:46:24;19.60;71.50
15359;DHT22;7779;49.596;11.070;2022-10-26T15:48:55;19.60;71.60
15359;DHT22;7779;49.596;11.070;2022-10-26T15:51:23;19.60;71.80
15359;DHT22;7779;49.596;11.070;2022-10-26T15:53:49;19.50;71.80
15359;DHT22;7779;49.596;11.070;2022-10-26T15:56:17;19.50;71.90
15359;DHT22;7779;49.596;11.070;2022-10-26T15:58:45;19.50;72.10
15359;DHT22;7779;49.596;11.070;2022-10-26T16:01:20;19.40;72.10
15359;DHT22;7779;49.596;11.070;2022-10-26T16:03:48;19.40;72.30
15359;DHT22;7779;49.596;11.070;2022-10-26T16:06:29;19.30;72.20
15359;DHT22;7779;49.596;11.070;2022-10-26T16:08:59;19.30;72.30
15359;DHT22;7779;49.596;11.070;2022-10-26T16:11:26;19.30;72.40
15359;DHT22;7779;49.596;11.070;2022-10-26T16:13:53;19.20;72.40
15359;DHT22;7779;49.596;11.070;2022-10-26T16:16:19;19.20;72.50
15359;DHT22;7779;49.596;11.070;2022-10-26T16:18:47;19.20;73.30
15359;DHT22;7779;49.596;11.070;2022-10-26T16:21:18;19.10;72.60
15359;DHT22;7779;49.596;11.070;2022-10-26T16:23:47;19.10;72.70
15359;DHT22;7779;49.596;11.070;2022-10-26T16:26:14;19.10;72.80
15359;DHT22;7779;49.596;11.070;2022-10-26T16:28:41;19.10;72.90
15359;DHT22;7779;49.596;11.070;2022-10-26T16:31:10;19.00;72.90
15359;DHT22;7779;49.596;11.070;2022-10-26T16:33:37;19.00;73.10
15359;DHT22;7779;49.596;11.070;2022-10-26T16:36:04;18.90;73.00
15359;DHT22;7779;49.596;11.070;2022-10-26T16:38:31;18.90;73.20
15359;DHT22;7779;49.596;11.070;2022-10-26T16:41:04;18.90;73.40
15359;DHT22;7779;49.596;11.070;2022-10-26T16:43:37;18.90;73.90
15359;DHT22;7779;49.596;11.070;2022-10-26T16:46:13;18.80;73.70
15359;DHT22;7779;49.596;11.070;2022-10-26T16:48:42;18.80;74.00
15359;DHT22;7779;49.596;11.070;2022-10-26T16:51:15;18.80;73.80
15359;DHT22;7779;49.596;11.070;2022-10-26T16:53:42;18.80;74.40
15359;DHT22;7779;49.596;11.070;2022-10-26T16:56:13;18.70;73.70
15359;DHT22;7779;49.596;11.070;2022-10-26T16:58:40;18.70;73.90
15359;DHT22;7779;49.596;11.070;2022-10-26T17:01:07;18.70;73.80
15359;DHT22;7779;49.596;11.070;2022-10-26T17:03:34;18.70;73.80
15359;DHT22;7779;49.596;11.070;2022-10-26T17:06:03;18.70;73.90
15359;DHT22;7779;49.596;11.070;2022-10-26T17:08:32;18.60;73.90
15359;DHT22;7779;49.596;11.070;2022-10-26T17:11:07;18.60;73.90
15359;DHT22;7779;49.596;11.070;2022-10-26T17:13:35;18.50;74.00
15359;DHT22;7779;49.596;11.070;2022-10-26T17:16:03;18.50;73.80
15359;DHT22;7779;49.596;11.070;2022-10-26T17:18:34;18.50;73.80
15359;DHT22;7779;49.596;11.070;2022-10-26T17:21:00;18.40;73.80
15359;DHT22;7779;49.596;11.070;2022-10-26T17:23:26;18.30;73.70
15359;DHT22;7779;49.596;11.070;2022-10-26T17:25:52;18.30;73.70
15359;DHT22;7779;49.596;11.070;2022-10-26T17:28:18;18.20;73.50
15359;DHT22;7779;49.596;11.070;2022-10-26T17:30:44;18.20;73.50
15359;DHT22;7779;49.596;11.070;2022-10-26T17:33:11;18.10;73.50
15359;DHT22;7779;49.596;11.070;2022-10-26T17:35:36;18.10;73.60
15359;DHT22;7779;49.596;11.070;2022-10-26T17:38:03;18.00;73.70
15359;DHT22;7779;49.596;11.070;2022-10-26T17:40:30;17.90;73.70
15359;DHT22;7779;49.596;11.070;2022-10-26T17:42:58;17.80;73.70
15359;DHT22;7779;49.596;11.070;2022-10-26T17:45:24;17.70;73.90
15359;DHT22;7779;49.596;11.070;2022-10-26T17:47:50;17.70;74.00
15359;DHT22;7779;49.596;11.070;2022-10-26T17:50:16;17.60;74.10
15359;DHT22;7779;49.596;11.070;2022-10-26T17:52:42;17.60;74.20
15359;DHT22;7779;49.596;11.070;2022-10-26T17:55:08;17.50;74.30
15359;DHT22;7779;49.596;11.070;2022-10-26T17:57:33;17.40;74.30
15359;DHT22;7779;49.596;11.070;2022-10-26T17:59:59;17.40;74.50
15359;DHT22;7779;49.596;11.070;2022-10-26T18:02:25;17.30;74.60
15359;DHT22;7779;49.596;11.070;2022-10-26T18:04:51;17.30;74.60
15359;DHT22;7779;49.596;11.070;2022-10-26T18:07:16;17.20;74.50
15359;DHT22;7779;49.596;11.070;2022-10-26T18:09:42;17.20;74.60
15359;DHT22;7779;49.596;11.070;2022-10-26T18:12:08;17.10;74.50
15359;DHT22;7779;49.596;11.070;2022-10-26T18:14:35;17.00;74.50
15359;DHT22;7779;49.596;11.070;2022-10-26T18:17:00;16.90;74.50
15359;DHT22;7779;49.596;11.070;2022-10-26T18:19:26;16.80;75.30
15359;DHT22;7779;49.596;11.070;2022-10-26T18:21:52;16.80;74.60
15359;DHT22;7779;49.596;11.070;2022-10-26T18:24:18;16.70;74.60
15359;DHT22;7779;49.596;11.070;2022-10-26T18:26:43;16.70;74.80